Aviation Digital Data Service (ADDS)

Output produced by METARs form (0256 UTC 20 March 2019)
found at http://www.aviationweather.gov/metar/data/
 
METAR text: WMKL 200200Z VRB01KT 9999 FEW020 SCT140 BKN280 31/23 Q1012
Conditions at: WMKL (LANGKAWI INTL AR, MY) observed 0200 UTC 20 March 2019
Temperature: 31.0°C (88°F)
Dewpoint: 23.0°C (73°F) [RH = 63%]
Pressure (altimeter): 29.88 inches Hg (1012.0 mb)
Winds: variable direction winds at 1 MPH (1 knots; 0.5 m/s)
Visibility: 6 or more miles (10+ km)
Ceiling: 28000 feet AGL
Clouds: few clouds at 2000 feet AGL
scattered clouds at 14000 feet AGL
broken clouds at 28000 feet AGL
Weather: no significant weather observed at this time

METAR text: WMKL 200100Z 00000KT 9999 FEW020 SCT140 BKN280 29/24 Q1011
Conditions at: WMKL (LANGKAWI INTL AR, MY) observed 0100 UTC 20 March 2019
Temperature: 29.0°C (84°F)
Dewpoint: 24.0°C (75°F) [RH = 74%]
Pressure (altimeter): 29.85 inches Hg (1011.0 mb)
Winds: calm
Visibility: 6 or more miles (10+ km)
Ceiling: 28000 feet AGL
Clouds: few clouds at 2000 feet AGL
scattered clouds at 14000 feet AGL
broken clouds at 28000 feet AGL
Weather: no significant weather observed at this time

METAR text: WMKL 200000Z 00000KT 9999 FEW020 SCT140 BKN280 27/23 Q1010
Conditions at: WMKL (LANGKAWI INTL AR, MY) observed 0000 UTC 20 March 2019
Temperature: 27.0°C (81°F)
Dewpoint: 23.0°C (73°F) [RH = 79%]
Pressure (altimeter): 29.82 inches Hg (1010.0 mb)
Winds: calm
Visibility: 6 or more miles (10+ km)
Ceiling: 28000 feet AGL
Clouds: few clouds at 2000 feet AGL
scattered clouds at 14000 feet AGL
broken clouds at 28000 feet AGL
Weather: no significant weather observed at this time

METAR text: WMKL 192300Z 06003KT 350V110 9999 FEW017CB BKN280 28/24 Q1009
Conditions at: WMKL (LANGKAWI INTL AR, MY) observed 2300 UTC 19 March 2019
Temperature: 28.0°C (82°F)
Dewpoint: 24.0°C (75°F) [RH = 79%]
Pressure (altimeter): 29.79 inches Hg (1009.0 mb)
Winds: from the ENE (60 degrees) at 3 MPH (3 knots; 1.5 m/s)
Visibility: 6 or more miles (10+ km)
Ceiling: 28000 feet AGL
Clouds: few clouds at 1700 feet AGL
broken clouds at 28000 feet AGL
Weather: no significant weather observed at this time

METAR text: WMKL 192200Z 04006KT 340V080 9999 FEW017CB BKN280 28/24 Q1008
Conditions at: WMKL (LANGKAWI INTL AR, MY) observed 2200 UTC 19 March 2019
Temperature: 28.0°C (82°F)
Dewpoint: 24.0°C (75°F) [RH = 79%]
Pressure (altimeter): 29.76 inches Hg (1008.0 mb)
Winds: from the NE (40 degrees) at 7 MPH (6 knots; 3.1 m/s)
Visibility: 6 or more miles (10+ km)
Ceiling: 28000 feet AGL
Clouds: few clouds at 1700 feet AGL
broken clouds at 28000 feet AGL
Weather: no significant weather observed at this time

METAR text: WMKL 192100Z 03007KT 340V070 9999 FEW025 BKN280 28/24 Q1008
Conditions at: WMKL (LANGKAWI INTL AR, MY) observed 2100 UTC 19 March 2019
Temperature: 28.0°C (82°F)
Dewpoint: 24.0°C (75°F) [RH = 79%]
Pressure (altimeter): 29.76 inches Hg (1008.0 mb)
Winds: from the NNE (30 degrees) at 8 MPH (7 knots; 3.6 m/s)
Visibility: 6 or more miles (10+ km)
Ceiling: 28000 feet AGL
Clouds: few clouds at 2500 feet AGL
broken clouds at 28000 feet AGL
Weather: no significant weather observed at this time

METAR text: WMKL 192000Z 02005KT 320V070 9999 FEW017CB BKN280 28/23 Q1009
Conditions at: WMKL (LANGKAWI INTL AR, MY) observed 2000 UTC 19 March 2019
Temperature: 28.0°C (82°F)
Dewpoint: 23.0°C (73°F) [RH = 74%]
Pressure (altimeter): 29.79 inches Hg (1009.0 mb)
Winds: from the NNE (20 degrees) at 6 MPH (5 knots; 2.6 m/s)
Visibility: 6 or more miles (10+ km)
Ceiling: 28000 feet AGL
Clouds: few clouds at 1700 feet AGL
broken clouds at 28000 feet AGL
Weather: no significant weather observed at this time

METAR text: WMKL 191900Z 03005KT 320V100 9999 FEW017CB BKN280 29/23 Q1009
Conditions at: WMKL (LANGKAWI INTL AR, MY) observed 1900 UTC 19 March 2019
Temperature: 29.0°C (84°F)
Dewpoint: 23.0°C (73°F) [RH = 70%]
Pressure (altimeter): 29.79 inches Hg (1009.0 mb)
Winds: from the NNE (30 degrees) at 6 MPH (5 knots; 2.6 m/s)
Visibility: 6 or more miles (10+ km)
Ceiling: 28000 feet AGL
Clouds: few clouds at 1700 feet AGL
broken clouds at 28000 feet AGL
Weather: no significant weather observed at this time

METAR text: WMKL 191800Z 03005KT 350V070 9999 FEW017CB BKN280 29/23 Q1010
Conditions at: WMKL (LANGKAWI INTL AR, MY) observed 1800 UTC 19 March 2019
Temperature: 29.0°C (84°F)
Dewpoint: 23.0°C (73°F) [RH = 70%]
Pressure (altimeter): 29.82 inches Hg (1010.0 mb)
Winds: from the NNE (30 degrees) at 6 MPH (5 knots; 2.6 m/s)
Visibility: 6 or more miles (10+ km)
Ceiling: 28000 feet AGL
Clouds: few clouds at 1700 feet AGL
broken clouds at 28000 feet AGL
Weather: no significant weather observed at this time

METAR text: WMKL 191700Z 04005KT 350V110 9999 FEW017CB BKN280 29/23 Q1010
Conditions at: WMKL (LANGKAWI INTL AR, MY) observed 1700 UTC 19 March 2019
Temperature: 29.0°C (84°F)
Dewpoint: 23.0°C (73°F) [RH = 70%]
Pressure (altimeter): 29.82 inches Hg (1010.0 mb)
Winds: from the NE (40 degrees) at 6 MPH (5 knots; 2.6 m/s)
Visibility: 6 or more miles (10+ km)
Ceiling: 28000 feet AGL
Clouds: few clouds at 1700 feet AGL
broken clouds at 28000 feet AGL
Weather: no significant weather observed at this time

METAR text: WMKL 191600Z VRB03KT 9999 FEW025 BKN280 30/24 Q1011
Conditions at: WMKL (LANGKAWI INTL AR, MY) observed 1600 UTC 19 March 2019
Temperature: 30.0°C (86°F)
Dewpoint: 24.0°C (75°F) [RH = 70%]
Pressure (altimeter): 29.85 inches Hg (1011.0 mb)
Winds: variable direction winds at 3 MPH (3 knots; 1.5 m/s)
Visibility: 6 or more miles (10+ km)
Ceiling: 28000 feet AGL
Clouds: few clouds at 2500 feet AGL
broken clouds at 28000 feet AGL
Weather: no significant weather observed at this time

METAR text: WMKL 191500Z 03004KT 340V080 9999 FEW025 BKN280 30/24 Q1011
Conditions at: WMKL (LANGKAWI INTL AR, MY) observed 1500 UTC 19 March 2019
Temperature: 30.0°C (86°F)
Dewpoint: 24.0°C (75°F) [RH = 70%]
Pressure (altimeter): 29.85 inches Hg (1011.0 mb)
Winds: from the NNE (30 degrees) at 5 MPH (4 knots; 2.1 m/s)
Visibility: 6 or more miles (10+ km)
Ceiling: 28000 feet AGL
Clouds: few clouds at 2500 feet AGL
broken clouds at 28000 feet AGL
Weather: no significant weather observed at this time

METAR text: WMKL 191400Z VRB01KT 9999 FEW025 BKN280 30/26 Q1010
Conditions at: WMKL (LANGKAWI INTL AR, MY) observed 1400 UTC 19 March 2019
Temperature: 30.0°C (86°F)
Dewpoint: 26.0°C (79°F) [RH = 79%]
Pressure (altimeter): 29.82 inches Hg (1010.0 mb)
Winds: variable direction winds at 1 MPH (1 knots; 0.5 m/s)
Visibility: 6 or more miles (10+ km)
Ceiling: 28000 feet AGL
Clouds: few clouds at 2500 feet AGL
broken clouds at 28000 feet AGL
Weather: no significant weather observed at this time

METAR text: WMKL 191300Z 00000KT 9999 FEW026 BKN280 31/26 Q1008
Conditions at: WMKL (LANGKAWI INTL AR, MY) observed 1300 UTC 19 March 2019
Temperature: 31.0°C (88°F)
Dewpoint: 26.0°C (79°F) [RH = 75%]
Pressure (altimeter): 29.76 inches Hg (1008.0 mb)
Winds: calm
Visibility: 6 or more miles (10+ km)
Ceiling: 28000 feet AGL
Clouds: few clouds at 2600 feet AGL
broken clouds at 28000 feet AGL
Weather: no significant weather observed at this time

METAR text: WMKL 191200Z VRB03KT 9999 FEW025 BKN280 31/27 Q1007
Conditions at: WMKL (LANGKAWI INTL AR, MY) observed 1200 UTC 19 March 2019
Temperature: 31.0°C (88°F)
Dewpoint: 27.0°C (81°F) [RH = 79%]
Pressure (altimeter): 29.73 inches Hg (1007.0 mb)
Winds: variable direction winds at 3 MPH (3 knots; 1.5 m/s)
Visibility: 6 or more miles (10+ km)
Ceiling: 28000 feet AGL
Clouds: few clouds at 2500 feet AGL
broken clouds at 28000 feet AGL
Weather: no significant weather observed at this time

METAR text: WMKL 191100Z 23005KT 160V290 9999 FEW022 BKN280 32/25 Q1007
Conditions at: WMKL (LANGKAWI INTL AR, MY) observed 1100 UTC 19 March 2019
Temperature: 32.0°C (90°F)
Dewpoint: 25.0°C (77°F) [RH = 67%]
Pressure (altimeter): 29.73 inches Hg (1007.0 mb)
Winds: from the SW (230 degrees) at 6 MPH (5 knots; 2.6 m/s)
Visibility: 6 or more miles (10+ km)
Ceiling: 28000 feet AGL
Clouds: few clouds at 2200 feet AGL
broken clouds at 28000 feet AGL
Weather: no significant weather observed at this time

METAR text: WMKL 191000Z VRB04KT 9999 FEW022 BKN280 32/25 Q1006
Conditions at: WMKL (LANGKAWI INTL AR, MY) observed 1000 UTC 19 March 2019
Temperature: 32.0°C (90°F)
Dewpoint: 25.0°C (77°F) [RH = 67%]
Pressure (altimeter): 29.70 inches Hg (1006.0 mb)
Winds: variable direction winds at 5 MPH (4 knots; 2.1 m/s)
Visibility: 6 or more miles (10+ km)
Ceiling: 28000 feet AGL
Clouds: few clouds at 2200 feet AGL
broken clouds at 28000 feet AGL
Weather: no significant weather observed at this time

METAR text: WMKL 190900Z VRB05KT 9999 FEW022 BKN280 33/26 Q1006
Conditions at: WMKL (LANGKAWI INTL AR, MY) observed 0900 UTC 19 March 2019
Temperature: 33.0°C (91°F)
Dewpoint: 26.0°C (79°F) [RH = 67%]
Pressure (altimeter): 29.70 inches Hg (1006.0 mb)
Winds: variable direction winds at 6 MPH (5 knots; 2.6 m/s)
Visibility: 6 or more miles (10+ km)
Ceiling: 28000 feet AGL
Clouds: few clouds at 2200 feet AGL
broken clouds at 28000 feet AGL
Weather: no significant weather observed at this time

METAR text: WMKL 190800Z VRB05KT 9999 FEW022 BKN280 33/25 Q1007
Conditions at: WMKL (LANGKAWI INTL AR, MY) observed 0800 UTC 19 March 2019
Temperature: 33.0°C (91°F)
Dewpoint: 25.0°C (77°F) [RH = 63%]
Pressure (altimeter): 29.73 inches Hg (1007.0 mb)
Winds: variable direction winds at 6 MPH (5 knots; 2.6 m/s)
Visibility: 6 or more miles (10+ km)
Ceiling: 28000 feet AGL
Clouds: few clouds at 2200 feet AGL
broken clouds at 28000 feet AGL
Weather: no significant weather observed at this time

METAR text: WMKL 190700Z 26007KT 190V340 9999 FEW022 BKN280 34/25 Q1008
Conditions at: WMKL (LANGKAWI INTL AR, MY) observed 0700 UTC 19 March 2019
Temperature: 34.0°C (93°F)
Dewpoint: 25.0°C (77°F) [RH = 60%]
Pressure (altimeter): 29.76 inches Hg (1008.0 mb)
Winds: from the W (260 degrees) at 8 MPH (7 knots; 3.6 m/s)
Visibility: 6 or more miles (10+ km)
Ceiling: 28000 feet AGL
Clouds: few clouds at 2200 feet AGL
broken clouds at 28000 feet AGL
Weather: no significant weather observed at this time

METAR text: WMKL 190600Z VRB04KT 9999 FEW022 BKN280 36/23 Q1009
Conditions at: WMKL (LANGKAWI INTL AR, MY) observed 0600 UTC 19 March 2019
Temperature: 36.0°C (97°F)
Dewpoint: 23.0°C (73°F) [RH = 47%]
Pressure (altimeter): 29.79 inches Hg (1009.0 mb)
Winds: variable direction winds at 5 MPH (4 knots; 2.1 m/s)
Visibility: 6 or more miles (10+ km)
Ceiling: 28000 feet AGL
Clouds: few clouds at 2200 feet AGL
broken clouds at 28000 feet AGL
Weather: no significant weather observed at this time

METAR text: WMKL 190500Z 12006KT 060V190 9999 FEW022 BKN290 35/22 Q1011
Conditions at: WMKL (LANGKAWI INTL AR, MY) observed 0500 UTC 19 March 2019
Temperature: 35.0°C (95°F)
Dewpoint: 22.0°C (72°F) [RH = 47%]
Pressure (altimeter): 29.85 inches Hg (1011.0 mb)
Winds: from the ESE (120 degrees) at 7 MPH (6 knots; 3.1 m/s)
Visibility: 6 or more miles (10+ km)
Ceiling: 29000 feet AGL
Clouds: few clouds at 2200 feet AGL
broken clouds at 29000 feet AGL
Weather: no significant weather observed at this time

METAR text: WMKL 190400Z 12006KT 070V190 9999 FEW022 BKN290 34/23 Q1012
Conditions at: WMKL (LANGKAWI INTL AR, MY) observed 0400 UTC 19 March 2019
Temperature: 34.0°C (93°F)
Dewpoint: 23.0°C (73°F) [RH = 53%]
Pressure (altimeter): 29.88 inches Hg (1012.0 mb)
Winds: from the ESE (120 degrees) at 7 MPH (6 knots; 3.1 m/s)
Visibility: 6 or more miles (10+ km)
Ceiling: 29000 feet AGL
Clouds: few clouds at 2200 feet AGL
broken clouds at 29000 feet AGL
Weather: no significant weather observed at this time

METAR text: WMKL 190300Z 06005KT 330V140 9999 FEW022 BKN290 33/23 Q1012
Conditions at: WMKL (LANGKAWI INTL AR, MY) observed 0300 UTC 19 March 2019
Temperature: 33.0°C (91°F)
Dewpoint: 23.0°C (73°F) [RH = 56%]
Pressure (altimeter): 29.88 inches Hg (1012.0 mb)
Winds: from the ENE (60 degrees) at 6 MPH (5 knots; 2.6 m/s)
Visibility: 6 or more miles (10+ km)
Ceiling: 29000 feet AGL
Clouds: few clouds at 2200 feet AGL
broken clouds at 29000 feet AGL
Weather: no significant weather observed at this time

METAR text: WMKL 190200Z VRB04KT 9999 FEW022 BKN260 31/24 Q1012
Conditions at: WMKL (LANGKAWI INTL AR, MY) observed 0200 UTC 19 March 2019
Temperature: 31.0°C (88°F)
Dewpoint: 24.0°C (75°F) [RH = 66%]
Pressure (altimeter): 29.88 inches Hg (1012.0 mb)
Winds: variable direction winds at 5 MPH (4 knots; 2.1 m/s)
Visibility: 6 or more miles (10+ km)
Ceiling: 26000 feet AGL
Clouds: few clouds at 2200 feet AGL
broken clouds at 26000 feet AGL
Weather: no significant weather observed at this time

METAR text: WMKL 190100Z 07004KT 010V110 9999 FEW020 BKN280 29/24 Q1011
Conditions at: WMKL (LANGKAWI INTL AR, MY) observed 0100 UTC 19 March 2019
Temperature: 29.0°C (84°F)
Dewpoint: 24.0°C (75°F) [RH = 74%]
Pressure (altimeter): 29.85 inches Hg (1011.0 mb)
Winds: from the ENE (70 degrees) at 5 MPH (4 knots; 2.1 m/s)
Visibility: 6 or more miles (10+ km)
Ceiling: 28000 feet AGL
Clouds: few clouds at 2000 feet AGL
broken clouds at 28000 feet AGL
Weather: no significant weather observed at this time

METAR text: WMKL 190000Z VRB03KT 9999 FEW020 BKN280 27/23 Q1011
Conditions at: WMKL (LANGKAWI INTL AR, MY) observed 0000 UTC 19 March 2019
Temperature: 27.0°C (81°F)
Dewpoint: 23.0°C (73°F) [RH = 79%]
Pressure (altimeter): 29.85 inches Hg (1011.0 mb)
Winds: variable direction winds at 3 MPH (3 knots; 1.5 m/s)
Visibility: 6 or more miles (10+ km)
Ceiling: 28000 feet AGL
Clouds: few clouds at 2000 feet AGL
broken clouds at 28000 feet AGL
Weather: no significant weather observed at this time

METAR text: WMKL 182300Z 06004KT 9999 FEW026 BKN280 27/23 Q1010
Conditions at: WMKL (LANGKAWI INTL AR, MY) observed 2300 UTC 18 March 2019
Temperature: 27.0°C (81°F)
Dewpoint: 23.0°C (73°F) [RH = 79%]
Pressure (altimeter): 29.82 inches Hg (1010.0 mb)
Winds: from the ENE (60 degrees) at 5 MPH (4 knots; 2.1 m/s)
Visibility: 6 or more miles (10+ km)
Ceiling: 28000 feet AGL
Clouds: few clouds at 2600 feet AGL
broken clouds at 28000 feet AGL
Weather: no significant weather observed at this time

METAR text: WMKL 182200Z VRB03KT 9999 FEW026 BKN280 28/23 Q1010
Conditions at: WMKL (LANGKAWI INTL AR, MY) observed 2200 UTC 18 March 2019
Temperature: 28.0°C (82°F)
Dewpoint: 23.0°C (73°F) [RH = 74%]
Pressure (altimeter): 29.82 inches Hg (1010.0 mb)
Winds: variable direction winds at 3 MPH (3 knots; 1.5 m/s)
Visibility: 6 or more miles (10+ km)
Ceiling: 28000 feet AGL
Clouds: few clouds at 2600 feet AGL
broken clouds at 28000 feet AGL
Weather: no significant weather observed at this time

METAR text: WMKL 182100Z VRB02KT 9999 FEW026 BKN280 28/23 Q1009
Conditions at: WMKL (LANGKAWI INTL AR, MY) observed 2100 UTC 18 March 2019
Temperature: 28.0°C (82°F)
Dewpoint: 23.0°C (73°F) [RH = 74%]
Pressure (altimeter): 29.79 inches Hg (1009.0 mb)
Winds: variable direction winds at 2 MPH (2 knots; 1.0 m/s)
Visibility: 6 or more miles (10+ km)
Ceiling: 28000 feet AGL
Clouds: few clouds at 2600 feet AGL
broken clouds at 28000 feet AGL
Weather: no significant weather observed at this time

METAR text: WMKL 182000Z VRB03KT 9999 FEW026 BKN280 28/24 Q1009
Conditions at: WMKL (LANGKAWI INTL AR, MY) observed 2000 UTC 18 March 2019
Temperature: 28.0°C (82°F)
Dewpoint: 24.0°C (75°F) [RH = 79%]
Pressure (altimeter): 29.79 inches Hg (1009.0 mb)
Winds: variable direction winds at 3 MPH (3 knots; 1.5 m/s)
Visibility: 6 or more miles (10+ km)
Ceiling: 28000 feet AGL
Clouds: few clouds at 2600 feet AGL
broken clouds at 28000 feet AGL
Weather: no significant weather observed at this time

METAR text: WMKL 181900Z VRB02KT 9999 FEW025 BKN280 28/24 Q1010
Conditions at: WMKL (LANGKAWI INTL AR, MY) observed 1900 UTC 18 March 2019
Temperature: 28.0°C (82°F)
Dewpoint: 24.0°C (75°F) [RH = 79%]
Pressure (altimeter): 29.82 inches Hg (1010.0 mb)
Winds: variable direction winds at 2 MPH (2 knots; 1.0 m/s)
Visibility: 6 or more miles (10+ km)
Ceiling: 28000 feet AGL
Clouds: few clouds at 2500 feet AGL
broken clouds at 28000 feet AGL
Weather: no significant weather observed at this time

METAR text: WMKL 181800Z 05003KT 350V100 9999 FEW026 BKN280 29/24 Q1010
Conditions at: WMKL (LANGKAWI INTL AR, MY) observed 1800 UTC 18 March 2019
Temperature: 29.0°C (84°F)
Dewpoint: 24.0°C (75°F) [RH = 74%]
Pressure (altimeter): 29.82 inches Hg (1010.0 mb)
Winds: from the NE (50 degrees) at 3 MPH (3 knots; 1.5 m/s)
Visibility: 6 or more miles (10+ km)
Ceiling: 28000 feet AGL
Clouds: few clouds at 2600 feet AGL
broken clouds at 28000 feet AGL
Weather: no significant weather observed at this time

METAR text: WMKL 181700Z VRB02KT 9999 FEW026 BKN280 29/25 Q1011
Conditions at: WMKL (LANGKAWI INTL AR, MY) observed 1700 UTC 18 March 2019
Temperature: 29.0°C (84°F)
Dewpoint: 25.0°C (77°F) [RH = 79%]
Pressure (altimeter): 29.85 inches Hg (1011.0 mb)
Winds: variable direction winds at 2 MPH (2 knots; 1.0 m/s)
Visibility: 6 or more miles (10+ km)
Ceiling: 28000 feet AGL
Clouds: few clouds at 2600 feet AGL
broken clouds at 28000 feet AGL
Weather: no significant weather observed at this time

METAR text: WMKL 181600Z VRB03KT 9999 FEW026 BKN280 30/26 Q1011
Conditions at: WMKL (LANGKAWI INTL AR, MY) observed 1600 UTC 18 March 2019
Temperature: 30.0°C (86°F)
Dewpoint: 26.0°C (79°F) [RH = 79%]
Pressure (altimeter): 29.85 inches Hg (1011.0 mb)
Winds: variable direction winds at 3 MPH (3 knots; 1.5 m/s)
Visibility: 6 or more miles (10+ km)
Ceiling: 28000 feet AGL
Clouds: few clouds at 2600 feet AGL
broken clouds at 28000 feet AGL
Weather: no significant weather observed at this time

METAR text: WMKL 181500Z 00000KT 9999 FEW026 BKN280 30/27 Q1011
Conditions at: WMKL (LANGKAWI INTL AR, MY) observed 1500 UTC 18 March 2019
Temperature: 30.0°C (86°F)
Dewpoint: 27.0°C (81°F) [RH = 84%]
Pressure (altimeter): 29.85 inches Hg (1011.0 mb)
Winds: calm
Visibility: 6 or more miles (10+ km)
Ceiling: 28000 feet AGL
Clouds: few clouds at 2600 feet AGL
broken clouds at 28000 feet AGL
Weather: no significant weather observed at this time

Forecast for: WMKL (LANGKAWI INTL AR, MY)
Text: TAF WMKL 192300Z 2000/2100 04007KT 9999 FEW022 BKN280
Forecast period: 0000 UTC 20 March 2019 to 0000 UTC 21 March 2019
Forecast type: FROM: standard forecast or significant change
Winds: from the NE (40 degrees) at 8 MPH (7 knots; 3.6 m/s)
Visibility: 6 or more miles 10+ km)
Ceiling: 28000 feet AGL
Clouds: few clouds at 2200 feet AGL
broken clouds at 28000 feet AGL
Weather: no significant weather forecast for this period